Baring, MO (63531)

4:23 PM CDT on July 26, 2016 (GMT -0500)
Kirksville Regional | | Change Station

Elev 965 ft 40.10 °N, 92.55 °W | Updated 28 minutes ago

Partly Cloudy
Partly Cloudy
87 °F
Feels Like 88 °F
N
4
Wind Variable Wind from Variable

Today
High -- | Low -- °F
--% Chance of Precip.
Yesterday
High -- | Low -- °F
Precip. -- in
Pressure 30.01 in
Visibility 10.0 miles
Clouds Few 4900 ft
Heat Index 88 °F
Dew Point 63 °F
Humidity 44%
Rainfall 0.00 in
Snow Depth Not available.
6:01 AM 8:28 PM
Waning Gibbous, 51% visible
METAR KIRK 262055Z AUTO VRB03KT 10SM FEW049 31/17 A3002 RMK AO2 SLP162 T03060172 58019
Pressure 30.01 in
Visibility 10.0 miles
Clouds Few 4900 ft
Heat Index 88 °F
Dew Point 63 °F
Humidity 44%
Rainfall 0.00 in
Snow Depth Not available.
6:01 AM 8:28 PM
Waning Gibbous, 51% visible
METAR KIRK 262055Z AUTO VRB03KT 10SM FEW049 31/17 A3002 RMK AO2 SLP162 T03060172 58019

10-Day Weather Forecast

Almanac

Astronomy

Jul. 26, 2016 Rise Set
Actual Time
Civil Twilight
Nautical Twilight
Astronomical Twilight
Moon
Length of Visible Light
Length of Day
Tomorrow will be .
, % of the Moon is Illuminated

Today's Extremes

State Highs State Lows

Community

WunderPhotos

Upload Photos

1,927,702 photos uploaded!

WunderBlog® & News

Nearby

Air Quality

  Air Quality AQ Index Pollutant
Not available.

Snow Depth

Station Depth Elevation

Earthquake Activity

City Distance Mag. Time & Date
Minimum magnitude displayed is 2.5.

Coastal Water Temperatures

Place Temperature

Stations

Nearby Weather Stations

Station Location Temp. Windchill Dew Point Humidity Wind Precip. Elev Updated Type
                   

Watches & Warnings

There are currently no watches in effect.